createdAt,value
2019-02-17T00:00:50.013Z,65.60
2019-02-17T00:01:53.992Z,65.40
2019-02-17T00:02:57.853Z,65.30
2019-02-17T00:04:01.773Z,65.00
2019-02-17T00:05:05.891Z,65.00
2019-02-17T00:06:09.844Z,64.70
2019-02-17T00:07:16.076Z,64.90
2019-02-17T00:08:22.109Z,64.80
2019-02-17T00:09:26.022Z,64.70
2019-02-17T00:10:29.958Z,64.90
2019-02-17T00:11:34.115Z,64.30
2019-02-17T00:12:38.194Z,64.30
2019-02-17T00:13:42.442Z,65.20
2019-02-17T00:14:46.841Z,64.60
2019-02-17T00:15:52.531Z,64.10
2019-02-17T00:16:56.428Z,64.20
2019-02-17T00:18:00.476Z,63.90
2019-02-17T00:19:07.506Z,64.00
2019-02-17T00:20:11.402Z,63.80
2019-02-17T00:21:15.420Z,63.60
2019-02-17T00:22:19.706Z,63.60
2019-02-17T00:23:23.773Z,63.70
2019-02-17T00:24:27.851Z,63.60
2019-02-17T00:25:31.880Z,64.40
2019-02-17T00:26:36.034Z,63.40
2019-02-17T00:27:39.891Z,63.20
2019-02-17T00:28:44.016Z,63.40
2019-02-17T00:29:49.654Z,63.30
2019-02-17T00:30:53.524Z,63.20
2019-02-17T00:31:57.423Z,63.20
2019-02-17T00:33:01.327Z,62.70
2019-02-17T00:34:05.460Z,63.30
2019-02-17T00:35:09.870Z,63.30
2019-02-17T00:36:13.722Z,63.10
2019-02-17T00:37:17.784Z,63.00
2019-02-17T00:38:21.839Z,63.10
2019-02-17T00:39:25.827Z,62.90
2019-02-17T00:40:29.779Z,62.90
2019-02-17T00:41:33.685Z,62.90
2019-02-17T00:42:37.859Z,63.70
2019-02-17T00:43:41.731Z,62.90
2019-02-17T00:44:45.769Z,63.80
2019-02-17T00:45:49.864Z,62.80
2019-02-17T00:46:53.728Z,62.70
2019-02-17T00:47:57.590Z,62.90
2019-02-17T00:49:03.170Z,62.70
2019-02-17T00:50:08.595Z,62.70
2019-02-17T00:51:12.730Z,63.10
2019-02-17T00:52:16.632Z,62.80
2019-02-17T00:53:20.735Z,62.90
2019-02-17T00:54:24.593Z,62.80
2019-02-17T00:55:28.502Z,62.80
2019-02-17T00:56:32.426Z,62.70
2019-02-17T00:57:36.400Z,62.70
2019-02-17T00:58:40.340Z,62.70
2019-02-17T00:59:44.432Z,62.90
2019-02-17T01:00:48.344Z,62.80
2019-02-17T01:01:52.212Z,62.80
2019-02-17T01:02:56.090Z,62.80
2019-02-17T01:04:00.028Z,62.90
2019-02-17T01:05:04.595Z,62.90
2019-02-17T01:06:08.492Z,62.90
2019-02-17T01:07:12.516Z,62.90
2019-02-17T01:08:16.391Z,62.80
2019-02-17T01:09:20.323Z,62.80
2019-02-17T01:10:24.215Z,62.70
2019-02-17T01:11:28.118Z,62.90
2019-02-17T01:12:32.041Z,62.90
2019-02-17T01:13:35.940Z,63.10
2019-02-17T01:14:39.970Z,63.80
2019-02-17T01:15:43.808Z,63.10
2019-02-17T01:16:47.751Z,63.10
2019-02-17T01:17:51.788Z,63.30
2019-02-17T01:18:55.689Z,63.30
2019-02-17T01:19:59.558Z,63.40
2019-02-17T01:21:03.541Z,63.40
2019-02-17T01:22:07.460Z,63.50
2019-02-17T01:23:11.363Z,63.50
2019-02-17T01:24:15.259Z,63.50
2019-02-17T01:25:19.197Z,63.60
2019-02-17T01:26:23.088Z,63.60
2019-02-17T01:27:26.989Z,63.70
2019-02-17T01:28:30.885Z,63.70
2019-02-17T01:29:34.787Z,63.90
2019-02-17T01:30:38.840Z,63.90
2019-02-17T01:31:42.860Z,63.90
2019-02-17T01:32:46.840Z,63.80
2019-02-17T01:33:50.851Z,64.00
2019-02-17T01:34:54.786Z,64.00
2019-02-17T01:35:58.763Z,64.00
2019-02-17T01:37:02.726Z,64.10
2019-02-17T01:38:06.710Z,64.30
2019-02-17T01:39:10.660Z,64.30
2019-02-17T01:40:14.601Z,64.30
2019-02-17T01:41:18.628Z,64.20
2019-02-17T01:42:22.549Z,64.50
2019-02-17T01:43:26.562Z,64.50
2019-02-17T01:44:30.552Z,64.60
2019-02-17T01:45:34.498Z,64.60
2019-02-17T01:46:38.645Z,64.60
2019-02-17T01:47:42.654Z,64.70
2019-02-17T01:48:46.567Z,64.60
2019-02-17T01:49:50.478Z,64.70
2019-02-17T01:50:54.411Z,64.70
2019-02-17T01:51:58.492Z,64.60
2019-02-17T01:53:02.401Z,64.70
2019-02-17T01:54:06.448Z,64.70
2019-02-17T01:55:10.322Z,64.70
2019-02-17T01:56:14.232Z,64.90
2019-02-17T01:57:18.185Z,65.00
2019-02-17T01:58:22.031Z,64.90
2019-02-17T01:59:30.572Z,65.00
2019-02-17T02:00:31.605Z,64.90
2019-02-17T02:01:35.600Z,64.90
2019-02-17T02:02:39.518Z,65.10
2019-02-17T02:03:43.469Z,65.30
2019-02-17T02:04:47.367Z,65.20
2019-02-17T02:05:51.267Z,65.00
2019-02-17T02:06:55.222Z,65.00
2019-02-17T02:08:03.651Z,65.10
2019-02-17T02:09:09.293Z,65.30
2019-02-17T02:10:13.256Z,65.30
2019-02-17T02:11:17.121Z,65.40
2019-02-17T02:12:21.071Z,65.40
2019-02-17T02:13:25.001Z,65.40
2019-02-17T02:14:28.916Z,65.50
2019-02-17T02:15:32.808Z,65.50
2019-02-17T02:16:36.692Z,65.80
2019-02-17T02:17:40.632Z,65.80
2019-02-17T02:18:44.529Z,65.90
2019-02-17T02:19:48.454Z,65.90
2019-02-17T02:20:52.348Z,65.90
2019-02-17T02:21:56.240Z,65.90
2019-02-17T02:23:00.200Z,65.90
2019-02-17T02:24:04.081Z,65.80
2019-02-17T02:25:09.800Z,65.90
2019-02-17T02:26:13.679Z,66.00
2019-02-17T02:27:17.651Z,66.00
2019-02-17T02:28:21.590Z,66.10
2019-02-17T02:29:25.603Z,66.10
2019-02-17T02:30:29.487Z,66.10
2019-02-17T02:31:33.375Z,66.30
2019-02-17T02:32:37.279Z,66.10
2019-02-17T02:33:41.334Z,66.20
2019-02-17T02:34:45.246Z,66.20
2019-02-17T02:35:52.218Z,66.30
2019-02-17T02:36:56.105Z,66.40
2019-02-17T02:37:59.978Z,66.40
2019-02-17T02:39:05.059Z,66.60
2019-02-17T02:40:08.987Z,66.70
2019-02-17T02:41:12.894Z,66.60
2019-02-17T02:42:16.819Z,66.70
2019-02-17T02:43:20.709Z,66.80
2019-02-17T02:44:24.664Z,66.70
2019-02-17T02:45:28.582Z,66.80
2019-02-17T02:46:32.474Z,66.80
2019-02-17T02:47:36.373Z,67.00
2019-02-17T02:48:40.280Z,66.80
2019-02-17T02:49:44.277Z,66.80
2019-02-17T02:50:48.173Z,67.50
2019-02-17T02:51:52.100Z,67.00
2019-02-17T02:52:55.996Z,67.00
2019-02-17T02:53:59.891Z,67.10
2019-02-17T02:55:04.156Z,67.10
2019-02-17T02:56:08.024Z,67.10
2019-02-17T02:57:11.921Z,67.10
2019-02-17T02:58:15.826Z,67.20
2019-02-17T02:59:19.766Z,67.50
2019-02-17T03:00:23.690Z,67.60
2019-02-17T03:01:27.659Z,67.50
2019-02-17T03:02:31.559Z,67.50
2019-02-17T03:03:35.481Z,67.40
2019-02-17T03:04:39.359Z,67.50
2019-02-17T03:05:44.911Z,67.50
2019-02-17T03:06:53.044Z,67.90
2019-02-17T03:07:56.956Z,67.10
2019-02-17T03:09:00.892Z,67.50
2019-02-17T03:10:05.433Z,67.50
2019-02-17T03:11:09.326Z,67.50
2019-02-17T03:12:13.249Z,67.50
2019-02-17T03:13:17.130Z,67.60
2019-02-17T03:14:21.026Z,67.60
2019-02-17T03:15:24.908Z,67.60
2019-02-17T03:16:28.772Z,67.70
2019-02-17T03:17:32.779Z,67.80
2019-02-17T03:18:36.695Z,67.70
2019-02-17T03:19:40.574Z,67.70
2019-02-17T03:20:44.477Z,67.70
2019-02-17T03:21:48.380Z,67.70
2019-02-17T03:22:52.320Z,67.70
2019-02-17T03:23:56.283Z,68.60
2019-02-17T03:25:00.285Z,67.80
2019-02-17T03:26:04.166Z,67.90
2019-02-17T03:27:08.071Z,67.90
2019-02-17T03:28:12.001Z,67.90
2019-02-17T03:29:15.921Z,67.90
2019-02-17T03:30:19.869Z,67.70
2019-02-17T03:31:23.775Z,67.80
2019-02-17T03:32:27.670Z,67.80
2019-02-17T03:33:31.559Z,67.70
2019-02-17T03:34:35.464Z,67.80
2019-02-17T03:35:39.354Z,67.90
2019-02-17T03:36:43.243Z,68.00
2019-02-17T03:37:47.135Z,68.00
2019-02-17T03:38:51.106Z,68.10
2019-02-17T03:39:55.005Z,68.40
2019-02-17T03:40:58.907Z,68.40
2019-02-17T03:42:02.793Z,68.30
2019-02-17T03:43:06.779Z,68.20
2019-02-17T03:44:10.727Z,68.30
2019-02-17T03:45:14.651Z,68.40
2019-02-17T03:46:18.544Z,68.40
2019-02-17T03:47:22.471Z,68.40
2019-02-17T03:48:26.481Z,68.30
2019-02-17T03:49:30.413Z,68.30
2019-02-17T03:50:34.325Z,68.10
2019-02-17T03:51:38.260Z,68.30
2019-02-17T03:52:42.190Z,68.40
2019-02-17T03:53:46.170Z,68.40
2019-02-17T03:54:51.763Z,68.60
2019-02-17T03:55:55.723Z,68.60
2019-02-17T03:56:59.685Z,68.70
2019-02-17T03:58:03.699Z,68.60
2019-02-17T03:59:07.629Z,68.40
2019-02-17T04:00:17.086Z,68.60
2019-02-17T04:01:17.075Z,68.70
2019-02-17T04:02:20.992Z,68.50
2019-02-17T04:03:24.868Z,68.60
2019-02-17T04:04:28.791Z,68.50
2019-02-17T04:05:32.682Z,68.40
2019-02-17T04:06:36.592Z,68.30
2019-02-17T04:07:40.506Z,68.20
2019-02-17T04:08:44.450Z,68.50
2019-02-17T04:09:48.341Z,68.50
2019-02-17T04:10:52.238Z,67.80
2019-02-17T04:11:56.152Z,68.60
2019-02-17T04:13:00.139Z,68.70
2019-02-17T04:14:04.125Z,68.50
2019-02-17T04:15:08.366Z,68.50
2019-02-17T04:16:12.355Z,68.50
2019-02-17T04:17:16.633Z,68.60
2019-02-17T04:18:20.606Z,68.60
2019-02-17T04:19:24.520Z,68.70
2019-02-17T04:20:28.568Z,68.60
2019-02-17T04:21:33.457Z,68.50
2019-02-17T04:22:37.507Z,68.60
2019-02-17T04:23:41.394Z,68.80
2019-02-17T04:24:45.341Z,68.60
2019-02-17T04:25:49.307Z,68.50
2019-02-17T04:26:53.289Z,68.60
2019-02-17T04:27:57.184Z,68.50
2019-02-17T04:29:01.233Z,68.60
2019-02-17T04:30:05.988Z,68.60
2019-02-17T04:31:09.891Z,68.50
2019-02-17T04:32:13.778Z,68.60
2019-02-17T04:33:17.700Z,68.70
2019-02-17T04:34:21.604Z,68.60
2019-02-17T04:35:25.495Z,68.70
2019-02-17T04:36:29.427Z,68.60
2019-02-17T04:37:33.353Z,68.50
2019-02-17T04:38:37.409Z,68.70
2019-02-17T04:39:41.306Z,68.70
2019-02-17T04:40:45.164Z,68.60
2019-02-17T04:41:49.126Z,68.70
2019-02-17T04:42:53.059Z,68.50
2019-02-17T04:43:57.052Z,68.60
2019-02-17T04:45:01.149Z,68.60
2019-02-17T04:46:04.961Z,68.70
2019-02-17T04:47:08.894Z,68.60
2019-02-17T04:48:12.866Z,68.60
2019-02-17T04:49:16.781Z,68.80
2019-02-17T04:50:20.676Z,68.60
2019-02-17T04:51:24.601Z,68.50
2019-02-17T04:52:28.513Z,68.60
2019-02-17T04:53:34.020Z,68.40
2019-02-17T04:54:39.038Z,68.40
2019-02-17T04:55:43.082Z,68.60
2019-02-17T04:56:47.069Z,68.70
2019-02-17T04:57:51.102Z,68.60
2019-02-17T04:58:55.086Z,68.70
2019-02-17T04:59:59.089Z,68.80
2019-02-17T05:01:03.036Z,68.80
2019-02-17T05:02:07.046Z,68.90
2019-02-17T05:03:10.966Z,69.10
2019-02-17T05:04:14.859Z,69.10
2019-02-17T05:05:18.744Z,69.30
2019-02-17T05:06:22.658Z,69.40
2019-02-17T05:07:26.632Z,69.50
2019-02-17T05:08:30.512Z,69.60
2019-02-17T05:09:36.067Z,69.60
2019-02-17T05:10:39.962Z,69.60
2019-02-17T05:11:43.892Z,69.70
2019-02-17T05:12:47.886Z,69.80
2019-02-17T05:13:51.782Z,69.70
2019-02-17T05:14:55.740Z,69.80
2019-02-17T05:15:59.716Z,69.80
2019-02-17T05:17:03.685Z,70.00
2019-02-17T05:18:07.954Z,70.10
2019-02-17T05:19:11.834Z,70.20
2019-02-17T05:20:15.763Z,70.30
2019-02-17T05:21:19.642Z,70.20
2019-02-17T05:22:23.623Z,70.60
2019-02-17T05:23:27.538Z,70.60
2019-02-17T05:24:31.456Z,70.60
2019-02-17T05:25:35.446Z,70.80
2019-02-17T05:26:39.345Z,70.80
2019-02-17T05:27:43.280Z,70.80
2019-02-17T05:28:47.278Z,70.80
2019-02-17T05:29:51.212Z,70.80
2019-02-17T05:30:55.346Z,70.90
2019-02-17T05:31:59.246Z,71.00
2019-02-17T05:33:03.201Z,71.00
2019-02-17T05:34:07.161Z,70.80
2019-02-17T05:35:12.763Z,70.90
2019-02-17T05:36:16.750Z,70.90
2019-02-17T05:37:20.817Z,71.00
2019-02-17T05:38:26.452Z,70.90
2019-02-17T05:39:32.138Z,71.10
2019-02-17T05:40:36.669Z,71.10
2019-02-17T05:41:40.894Z,71.00
2019-02-17T05:42:44.752Z,71.10
2019-02-17T05:43:48.740Z,71.10
2019-02-17T05:44:52.650Z,71.10
2019-02-17T05:45:56.590Z,71.30
2019-02-17T05:47:00.516Z,71.30
2019-02-17T05:48:04.601Z,71.30
2019-02-17T05:49:08.521Z,71.30
2019-02-17T05:50:12.458Z,71.30
2019-02-17T05:51:16.371Z,71.30
2019-02-17T05:52:20.604Z,71.30
2019-02-17T05:53:24.558Z,71.30
2019-02-17T05:54:28.487Z,71.20
2019-02-17T05:55:32.394Z,71.30
2019-02-17T05:56:36.352Z,71.50
2019-02-17T05:57:40.337Z,72.00
2019-02-17T05:58:44.285Z,71.20
2019-02-17T05:59:48.236Z,71.20
2019-02-17T06:01:03.000Z,71.10
2019-02-17T06:01:57.768Z,71.30
2019-02-17T06:03:01.673Z,71.10
2019-02-17T06:04:05.574Z,71.40
2019-02-17T06:05:09.485Z,71.20
2019-02-17T06:06:14.998Z,71.20
2019-02-17T06:07:19.266Z,71.30
2019-02-17T06:08:24.442Z,71.30
2019-02-17T06:09:28.356Z,71.30
2019-02-17T06:10:32.239Z,71.40
2019-02-17T06:11:36.239Z,71.50
2019-02-17T06:12:40.148Z,71.10
2019-02-17T06:13:44.158Z,71.30
2019-02-17T06:14:48.030Z,71.20
2019-02-17T06:15:51.940Z,71.20
2019-02-17T06:16:55.880Z,71.30
2019-02-17T06:17:59.771Z,71.10
2019-02-17T06:19:03.667Z,71.30
2019-02-17T06:20:09.908Z,71.20
2019-02-17T06:21:13.962Z,71.10
2019-02-17T06:22:18.178Z,71.10
2019-02-17T06:23:22.065Z,71.20
2019-02-17T06:24:25.961Z,71.10
2019-02-17T06:25:29.879Z,71.70
2019-02-17T06:26:33.774Z,71.10
2019-02-17T06:27:37.713Z,71.20
2019-02-17T06:28:41.594Z,71.10
2019-02-17T06:29:45.468Z,71.10
2019-02-17T06:30:49.382Z,71.20
2019-02-17T06:31:53.276Z,71.20
2019-02-17T06:32:57.186Z,71.30
2019-02-17T06:34:01.076Z,71.30
2019-02-17T06:35:05.500Z,71.20
2019-02-17T06:36:09.402Z,71.20
2019-02-17T06:37:13.314Z,71.40
2019-02-17T06:38:17.251Z,71.50
2019-02-17T06:39:21.376Z,71.30
2019-02-17T06:40:25.286Z,71.00
2019-02-17T06:41:29.217Z,71.10
2019-02-17T06:42:33.252Z,71.10
2019-02-17T06:43:37.225Z,71.00
2019-02-17T06:44:41.124Z,71.30
2019-02-17T06:45:45.119Z,72.00
2019-02-17T06:46:50.649Z,70.90
2019-02-17T06:47:54.560Z,70.70
2019-02-17T06:48:58.460Z,70.80
2019-02-17T06:50:03.233Z,70.50
2019-02-17T06:51:07.290Z,70.40
2019-02-17T06:52:11.190Z,70.50
2019-02-17T06:53:15.077Z,70.50
2019-02-17T06:54:18.956Z,70.80
2019-02-17T06:55:30.098Z,70.30
2019-02-17T06:56:35.623Z,70.40
2019-02-17T06:57:41.160Z,70.40
2019-02-17T06:58:45.065Z,70.50
2019-02-17T06:59:49.040Z,70.60
2019-02-17T07:00:52.945Z,70.40
2019-02-17T07:01:56.864Z,70.50
2019-02-17T07:03:00.781Z,70.50
2019-02-17T07:04:04.776Z,70.20
2019-02-17T07:05:10.369Z,70.60
2019-02-17T07:06:15.935Z,70.10
2019-02-17T07:07:20.201Z,70.10
2019-02-17T07:08:24.147Z,70.10
2019-02-17T07:09:28.705Z,69.90
2019-02-17T07:10:32.594Z,69.90
2019-02-17T07:11:36.647Z,69.80
2019-02-17T07:12:42.597Z,70.10
2019-02-17T07:13:46.088Z,70.40
2019-02-17T07:14:50.055Z,69.80
2019-02-17T07:15:54.000Z,69.50
2019-02-17T07:16:57.946Z,69.30
2019-02-17T07:18:01.840Z,69.40
2019-02-17T07:19:10.809Z,69.30
2019-02-17T07:20:14.687Z,69.70
2019-02-17T07:21:18.585Z,69.20
2019-02-17T07:22:22.607Z,69.10
2019-02-17T07:23:26.527Z,69.50
2019-02-17T07:24:30.426Z,69.30
2019-02-17T07:25:34.326Z,69.00
2019-02-17T07:26:38.199Z,69.00
2019-02-17T07:27:42.146Z,69.00
2019-02-17T07:28:46.162Z,68.70
2019-02-17T07:29:50.060Z,68.60
2019-02-17T07:30:53.938Z,68.60
2019-02-17T07:31:58.030Z,68.50
2019-02-17T07:33:01.946Z,68.50
2019-02-17T07:34:06.695Z,68.00
2019-02-17T07:35:10.676Z,68.10
2019-02-17T07:36:14.637Z,68.40
2019-02-17T07:37:19.462Z,68.20
2019-02-17T07:38:23.425Z,68.50
2019-02-17T07:39:27.396Z,68.20
2019-02-17T07:40:31.305Z,68.60
2019-02-17T07:41:35.191Z,68.20
2019-02-17T07:42:39.082Z,68.10
2019-02-17T07:43:42.992Z,67.90
2019-02-17T07:44:46.909Z,67.60
2019-02-17T07:45:50.785Z,67.70
2019-02-17T07:46:54.746Z,67.60
2019-02-17T07:47:58.624Z,67.40
2019-02-17T07:49:02.569Z,67.70
2019-02-17T07:50:09.140Z,67.80
2019-02-17T07:51:13.022Z,67.80
2019-02-17T07:52:16.980Z,68.10
2019-02-17T07:53:20.891Z,68.50
2019-02-17T07:54:24.798Z,68.10
2019-02-17T07:55:28.697Z,68.10
2019-02-17T07:56:32.594Z,68.20
2019-02-17T07:57:36.523Z,68.20
2019-02-17T07:58:40.433Z,68.20
2019-02-17T07:59:44.349Z,68.20
2019-02-17T08:00:48.206Z,68.20
2019-02-17T08:01:52.132Z,68.10
2019-02-17T08:02:56.040Z,68.20
2019-02-17T08:03:59.975Z,68.50
2019-02-17T08:05:04.422Z,68.60
2019-02-17T08:06:08.310Z,68.70
2019-02-17T08:07:12.248Z,68.70
2019-02-17T08:08:16.201Z,68.60
2019-02-17T08:09:20.168Z,68.40
2019-02-17T08:10:24.147Z,68.40
2019-02-17T08:11:28.076Z,68.50
2019-02-17T08:12:31.975Z,68.30
2019-02-17T08:13:35.948Z,68.30
2019-02-17T08:14:39.931Z,68.20
2019-02-17T08:15:44.039Z,68.40
2019-02-17T08:16:47.964Z,68.20
2019-02-17T08:17:51.885Z,68.10
2019-02-17T08:18:55.768Z,68.10
2019-02-17T08:19:59.654Z,68.20
2019-02-17T08:21:03.885Z,68.10
2019-02-17T08:22:07.821Z,68.40
2019-02-17T08:23:11.710Z,68.40
2019-02-17T08:24:15.675Z,68.20
2019-02-17T08:25:22.062Z,68.30
2019-02-17T08:26:25.122Z,68.10
2019-02-17T08:27:29.003Z,68.20
2019-02-17T08:28:32.984Z,68.10
2019-02-17T08:29:37.042Z,67.80
2019-02-17T08:30:40.921Z,67.80
2019-02-17T08:31:54.909Z,67.80
2019-02-17T08:32:50.528Z,67.70
2019-02-17T08:33:54.427Z,67.80
2019-02-17T08:34:58.317Z,67.80
2019-02-17T08:36:02.217Z,67.80
2019-02-17T08:37:06.299Z,67.80
2019-02-17T08:38:10.219Z,68.00
2019-02-17T08:39:14.211Z,67.60
2019-02-17T08:40:18.114Z,67.70
2019-02-17T08:41:22.002Z,67.40
2019-02-17T08:42:25.898Z,67.30
2019-02-17T08:43:29.851Z,67.60
2019-02-17T08:44:33.730Z,67.90
2019-02-17T08:45:37.740Z,67.50
2019-02-17T08:46:41.823Z,67.60
2019-02-17T08:47:46.002Z,67.60
2019-02-17T08:48:50.073Z,67.70
2019-02-17T08:49:54.011Z,67.70
2019-02-17T08:50:57.949Z,67.90
2019-02-17T08:52:01.844Z,68.10
2019-02-17T08:53:05.793Z,68.30
2019-02-17T08:54:09.775Z,68.30
2019-02-17T08:55:13.687Z,68.60
2019-02-17T08:56:18.807Z,68.60
2019-02-17T08:57:22.887Z,68.90
2019-02-17T08:58:27.116Z,68.80
2019-02-17T08:59:31.021Z,68.90
2019-02-17T09:00:34.918Z,69.00
2019-02-17T09:01:40.511Z,69.10
2019-02-17T09:02:44.581Z,69.40
2019-02-17T09:03:48.529Z,69.50
2019-02-17T09:04:52.460Z,69.50
2019-02-17T09:05:56.819Z,69.70
2019-02-17T09:07:00.934Z,69.70
2019-02-17T09:08:04.887Z,69.70
2019-02-17T09:09:08.868Z,69.70
2019-02-17T09:10:13.117Z,69.80
2019-02-17T09:11:17.342Z,70.00
2019-02-17T09:12:21.297Z,71.20
2019-02-17T09:13:25.136Z,70.30
2019-02-17T09:14:29.041Z,70.40
2019-02-17T09:15:33.000Z,70.60
2019-02-17T09:16:36.998Z,70.60
2019-02-17T09:17:41.178Z,71.00
2019-02-17T09:18:45.065Z,70.90
2019-02-17T09:19:49.042Z,71.20
2019-02-17T09:20:53.139Z,71.20
2019-02-17T09:21:57.107Z,71.20
2019-02-17T09:23:01.400Z,71.20
2019-02-17T09:24:05.490Z,71.20
2019-02-17T09:25:11.292Z,71.20
2019-02-17T09:26:15.269Z,71.10
2019-02-17T09:27:19.447Z,71.10
2019-02-17T09:28:23.351Z,71.30
2019-02-17T09:29:27.297Z,71.40
2019-02-17T09:30:31.197Z,71.70
2019-02-17T09:31:35.187Z,71.40
2019-02-17T09:32:39.094Z,71.30
2019-02-17T09:33:43.010Z,71.30
2019-02-17T09:34:47.139Z,71.50
2019-02-17T09:35:51.069Z,71.40
2019-02-17T09:36:55.153Z,71.40
2019-02-17T09:37:59.097Z,71.30
2019-02-17T09:39:04.638Z,71.70
2019-02-17T09:40:10.962Z,71.10
2019-02-17T09:41:14.849Z,70.60
2019-02-17T09:42:19.435Z,70.70
2019-02-17T09:43:23.376Z,69.80
2019-02-17T09:44:27.813Z,69.60
2019-02-17T09:45:31.843Z,69.20
2019-02-17T09:46:35.886Z,69.10
2019-02-17T09:47:39.788Z,68.90
2019-02-17T09:48:43.877Z,69.00
2019-02-17T09:49:47.883Z,69.50
2019-02-17T09:50:51.836Z,68.00
2019-02-17T09:51:55.937Z,68.20
2019-02-17T09:52:59.822Z,68.00
2019-02-17T09:54:03.732Z,68.40
2019-02-17T09:55:10.690Z,67.90
2019-02-17T09:56:14.646Z,67.90
2019-02-17T09:57:19.014Z,68.10
2019-02-17T09:58:22.964Z,67.90
2019-02-17T09:59:26.996Z,67.60
2019-02-17T10:00:30.926Z,67.30
2019-02-17T10:01:34.784Z,68.10
2019-02-17T10:02:38.684Z,67.50
2019-02-17T10:03:42.644Z,67.30
2019-02-17T10:04:46.529Z,67.50
2019-02-17T10:05:50.607Z,67.30
2019-02-17T10:06:54.611Z,67.50
2019-02-17T10:07:58.907Z,67.60
2019-02-17T10:09:03.164Z,67.40
2019-02-17T10:10:13.243Z,67.50
2019-02-17T10:11:17.269Z,68.00
2019-02-17T10:12:21.164Z,68.10
2019-02-17T10:13:25.177Z,67.60
2019-02-17T10:14:29.086Z,67.70
2019-02-17T10:15:33.083Z,66.80
2019-02-17T10:16:37.088Z,66.90
2019-02-17T10:17:41.067Z,66.50
2019-02-17T10:18:44.985Z,66.60
2019-02-17T10:19:49.221Z,66.40
2019-02-17T10:20:53.141Z,66.40
2019-02-17T10:21:57.289Z,66.70
2019-02-17T10:23:01.136Z,66.50
2019-02-17T10:24:05.072Z,66.50
2019-02-17T10:25:12.224Z,66.70
2019-02-17T10:26:16.225Z,66.40
2019-02-17T10:27:20.350Z,66.40
2019-02-17T10:28:28.555Z,66.00
2019-02-17T10:29:32.475Z,65.70
2019-02-17T10:30:36.649Z,65.50
2019-02-17T10:31:40.638Z,65.60
2019-02-17T10:32:47.518Z,66.00
2019-02-17T10:33:51.434Z,66.10
2019-02-17T10:34:55.442Z,65.30
2019-02-17T10:35:59.313Z,65.30
2019-02-17T10:37:03.293Z,65.40
2019-02-17T10:38:07.230Z,65.30
2019-02-17T10:39:11.233Z,65.30
2019-02-17T10:40:19.351Z,65.20
2019-02-17T10:41:23.233Z,65.00
2019-02-17T10:42:30.444Z,64.90
2019-02-17T10:43:34.412Z,64.90
2019-02-17T10:44:38.532Z,64.50
2019-02-17T10:45:43.750Z,64.60
2019-02-17T10:46:47.756Z,64.30
2019-02-17T10:47:51.720Z,64.10
2019-02-17T10:48:55.812Z,64.40
2019-02-17T10:49:59.775Z,65.30
2019-02-17T10:51:03.769Z,65.10
2019-02-17T10:52:07.668Z,64.90
2019-02-17T10:53:11.567Z,65.40
2019-02-17T10:54:15.457Z,65.10
2019-02-17T10:55:19.452Z,65.60
2019-02-17T10:56:23.329Z,65.70
2019-02-17T10:57:27.368Z,66.00
2019-02-17T10:58:31.384Z,66.20
2019-02-17T10:59:35.330Z,66.10
2019-02-17T11:00:39.289Z,66.10
2019-02-17T11:01:43.189Z,66.70
2019-02-17T11:02:47.803Z,66.30
2019-02-17T11:04:01.144Z,66.30
2019-02-17T11:05:06.918Z,66.10
2019-02-17T11:06:10.935Z,65.90
2019-02-17T11:07:14.855Z,65.90
2019-02-17T11:08:18.888Z,65.90
2019-02-17T11:09:22.755Z,66.20
2019-02-17T11:10:26.654Z,66.10
2019-02-17T11:11:30.678Z,66.10
2019-02-17T11:12:34.567Z,66.00
2019-02-17T11:13:38.458Z,66.10
2019-02-17T11:14:42.344Z,65.90
2019-02-17T11:15:46.261Z,65.90
2019-02-17T11:16:50.212Z,66.40
2019-02-17T11:17:54.116Z,66.20
2019-02-17T11:18:58.092Z,66.50
2019-02-17T11:20:01.989Z,66.10
2019-02-17T11:21:05.899Z,65.90
2019-02-17T11:22:09.858Z,65.90
2019-02-17T11:23:13.757Z,66.30
2019-02-17T11:24:17.728Z,67.90
2019-02-17T11:25:21.661Z,66.30
2019-02-17T11:26:25.528Z,66.60
2019-02-17T11:27:29.481Z,66.70
2019-02-17T11:28:33.400Z,66.60
2019-02-17T11:29:37.320Z,66.70
2019-02-17T11:30:41.212Z,67.00
2019-02-17T11:31:45.156Z,66.60
2019-02-17T11:32:57.667Z,66.70
2019-02-17T11:33:54.734Z,66.80
2019-02-17T11:34:58.712Z,66.80
2019-02-17T11:36:02.611Z,66.60
2019-02-17T11:37:06.584Z,66.50
2019-02-17T11:38:10.557Z,66.70
2019-02-17T11:39:16.123Z,66.30
2019-02-17T11:40:20.125Z,66.80
2019-02-17T11:41:24.098Z,66.40
2019-02-17T11:42:28.083Z,66.50
2019-02-17T11:43:32.079Z,66.80
2019-02-17T11:44:36.005Z,66.30
2019-02-17T11:45:39.897Z,66.40
2019-02-17T11:46:43.868Z,66.50
2019-02-17T11:47:47.788Z,66.60
2019-02-17T11:48:51.770Z,66.60
2019-02-17T11:49:55.834Z,66.60
2019-02-17T11:50:59.712Z,66.90
2019-02-17T11:52:03.662Z,66.40
2019-02-17T11:53:07.574Z,66.30
2019-02-17T11:54:11.535Z,65.90
2019-02-17T11:55:16.069Z,66.20
2019-02-17T11:56:19.958Z,66.30
2019-02-17T11:57:23.921Z,66.50
2019-02-17T11:58:27.881Z,66.50
2019-02-17T11:59:31.839Z,66.10
2019-02-17T12:00:35.918Z,65.90
2019-02-17T12:01:39.835Z,66.00
2019-02-17T12:02:43.892Z,66.10
2019-02-17T12:03:48.019Z,65.80
2019-02-17T12:04:51.986Z,65.20
2019-02-17T12:05:56.004Z,65.70
2019-02-17T12:07:00.386Z,65.00
2019-02-17T12:08:04.536Z,65.00
2019-02-17T12:09:08.464Z,64.30
2019-02-17T12:10:12.464Z,65.30
2019-02-17T12:11:16.545Z,64.30
2019-02-17T12:12:22.097Z,64.20
2019-02-17T12:13:26.070Z,64.50
2019-02-17T12:14:32.323Z,64.60
2019-02-17T12:15:36.219Z,64.60
2019-02-17T12:16:40.224Z,64.70
2019-02-17T12:17:44.272Z,64.60
2019-02-17T12:18:48.305Z,64.60
2019-02-17T12:19:54.043Z,64.50
2019-02-17T12:21:02.692Z,64.60
2019-02-17T12:22:09.280Z,64.70
2019-02-17T12:23:28.308Z,65.00
2019-02-17T12:24:34.097Z,65.00
2019-02-17T12:25:39.686Z,65.10
2019-02-17T12:26:51.103Z,65.20
2019-02-17T12:27:56.704Z,65.30
2019-02-17T12:29:02.231Z,66.20
2019-02-17T12:30:09.165Z,65.60
2019-02-17T12:31:14.710Z,65.60
2019-02-17T12:32:20.342Z,65.60
2019-02-17T12:33:24.244Z,66.10
2019-02-17T12:34:28.145Z,65.70
2019-02-17T12:35:32.140Z,66.50
2019-02-17T12:36:36.148Z,65.60
2019-02-17T12:37:40.099Z,65.50
2019-02-17T12:38:44.013Z,65.80
2019-02-17T12:39:49.063Z,66.20
2019-02-17T12:40:53.073Z,66.30
2019-02-17T12:41:58.473Z,66.40
2019-02-17T12:43:02.505Z,66.40
2019-02-17T12:44:06.402Z,66.20
2019-02-17T12:45:12.365Z,66.20
2019-02-17T12:46:16.347Z,66.50
2019-02-17T12:47:20.290Z,66.30
2019-02-17T12:48:24.297Z,66.50
2019-02-17T12:49:29.403Z,66.80
2019-02-17T12:50:33.326Z,66.90
2019-02-17T12:51:37.414Z,67.00
2019-02-17T12:52:47.307Z,66.90
2019-02-17T12:53:48.323Z,67.00
2019-02-17T12:54:52.329Z,67.60
2019-02-17T12:55:56.312Z,67.20
2019-02-17T12:57:00.283Z,67.40
2019-02-17T12:58:04.225Z,67.10
2019-02-17T12:59:08.215Z,67.90
2019-02-17T13:00:15.767Z,67.20
2019-02-17T13:01:19.779Z,67.30
2019-02-17T13:02:23.717Z,67.10
2019-02-17T13:03:28.749Z,67.40
2019-02-17T13:04:32.938Z,67.40
2019-02-17T13:05:36.897Z,67.60
2019-02-17T13:06:40.845Z,67.30
2019-02-17T13:07:44.838Z,67.80
2019-02-17T13:08:48.742Z,67.50
2019-02-17T13:09:52.911Z,67.40
2019-02-17T13:10:56.932Z,67.70
2019-02-17T13:12:00.873Z,67.90
2019-02-17T13:13:04.918Z,67.50
2019-02-17T13:14:09.051Z,67.00
2019-02-17T13:15:14.862Z,67.30
2019-02-17T13:16:18.703Z,67.50
2019-02-17T13:17:22.726Z,67.50
2019-02-17T13:18:26.635Z,67.60
2019-02-17T13:19:30.587Z,67.40
2019-02-17T13:20:34.639Z,67.60
2019-02-17T13:21:40.464Z,67.60
2019-02-17T13:22:44.508Z,67.20
2019-02-17T13:23:48.684Z,67.10
2019-02-17T13:24:52.567Z,66.90
2019-02-17T13:25:56.443Z,66.90
2019-02-17T13:27:00.600Z,67.00
2019-02-17T13:28:04.681Z,66.90
2019-02-17T13:29:08.698Z,67.20
2019-02-17T13:30:15.871Z,67.30
2019-02-17T13:31:19.961Z,66.60
2019-02-17T13:32:23.965Z,66.70
2019-02-17T13:33:28.048Z,66.40
2019-02-17T13:34:32.005Z,66.50
2019-02-17T13:35:36.003Z,66.70
2019-02-17T13:36:40.408Z,66.80
2019-02-17T13:37:44.498Z,65.50
2019-02-17T13:38:48.598Z,66.40
2019-02-17T13:39:52.570Z,66.30
2019-02-17T13:40:56.583Z,66.50
2019-02-17T13:42:00.655Z,66.90
2019-02-17T13:43:04.884Z,66.20
2019-02-17T13:44:08.889Z,65.90
2019-02-17T13:45:17.396Z,66.20
2019-02-17T13:46:21.397Z,65.60
2019-02-17T13:47:27.169Z,65.40